Time;durP1;ratioP1;P1;durP2;ratioP2;P2;SDS_P1;SDS_P2;PMS_P1;PMS_P2;Temp;Humidity;BMP_temperature;BMP_pressure;BME280_temperature;BME280_humidity;BME280_pressure;Samples;Min_cycle;Max_cycle;Signal;HPM_P1;HPM_P2
2023/02/18 00:02:22;;;;;;;;;;;;;;;-8.34;62.17;100148.13;4801088;29;19932;-82
2023/02/18 00:05:23;;;;;;;;;;;;;;;-8.36;61.95;100144.59;4800424;29;19929;-84
2023/02/18 00:09:03;;;;;;;;;;;;;;;-8.52;61.68;100132.56;4781672;29;19925;-84
2023/02/18 00:12:14;;;;;;;;;;;;;;;-8.76;61.21;100125.72;4812380;29;19928;-82
2023/02/18 00:15:29;;;;;;;;;;;;;;;-8.77;61.49;100134.94;4806444;29;20033;-83
2023/02/18 00:18:10;;;;;;;;;;;;;;;-8.72;61.76;100126.06;4788084;29;19973;-83
2023/02/18 00:21:07;;;;;;;;;;;;;;;-8.67;61.93;100128.91;4804259;29;19931;-84
2023/02/18 00:23:59;;;;;;;;;;;;;;;-8.60;61.59;100128.59;4817168;29;19929;-84
2023/02/18 00:30:12;;;;;;;;;;;;;;;;;;;;;
2023/02/18 00:33:41;;;;;;;;;;;;;;;-8.51;61.79;100126.75;4825087;29;19932;-85
2023/02/18 00:36:57;;;;;;;;;;;;;;;-8.50;61.36;100131.03;4795482;29;19925;-85
2023/02/18 00:39:44;;;;;;;;;;;;;;;-8.63;61.32;100126.75;4787161;29;19947;-85
2023/02/18 00:42:21;;;;;;;;;;;;;;;-8.75;61.76;100120.78;4784477;29;19932;-84
2023/02/18 00:45:10;;;;;;;;;;;;;;;-8.81;61.14;100110.22;4788674;29;19929;-82
2023/02/18 00:47:43;;;;;;;;;;;;;;;-8.83;60.50;100109.28;4826329;29;20373;-82
2023/02/18 00:50:17;;;;;;;;;;;;;;;-8.82;62.02;100101.81;4787958;29;19925;-82
2023/02/18 00:52:54;;;;;;;;;;;;;;;-8.78;61.62;100101.25;4802164;29;19931;-84
2023/02/18 00:55:26;;;;;;;;;;;;;;;-8.73;61.66;100103.25;4786387;29;19975;-84
2023/02/18 00:58:10;;;;;;;;;;;;;;;-8.72;61.37;100097.44;4805562;29;19985;-84
2023/02/18 01:01:23;;;;;;;;;;;;;;;;;;;;;
2023/02/18 01:04:42;;;;;;;;;;;;;;;-8.72;61.57;100093.25;4786930;29;19929;-84
2023/02/18 01:07:47;;;;;;;;;;;;;;;-8.70;61.53;100086.69;4813241;29;19955;-82
2023/02/18 01:11:07;;;;;;;;;;;;;;;;;;;;;
2023/02/18 01:14:10;;;;;;;;;;;;;;;;;;;;;
2023/02/18 01:16:53;;;;;;;;;;;;;;;-8.72;61.70;100068.03;4825217;29;19935;-82
2023/02/18 01:19:51;;;;;;;;;;;;;;;-8.70;61.34;100061.44;4806586;29;20004;-84
2023/02/18 01:22:48;;;;;;;;;;;;;;;-8.68;61.35;100061.53;4804016;29;19965;-84
2023/02/18 01:25:29;;;;;;;;;;;;;;;-8.70;61.19;100060.53;4810278;29;19929;-82
2023/02/18 01:28:24;;;;;;;;;;;;;;;-8.69;61.07;100042.13;4824511;29;19931;-84
2023/02/18 01:31:35;;;;;;;;;;;;;;;-8.68;61.06;100037.19;4807556;29;19964;-84
2023/02/18 01:39:33;;;;;;;;;;;;;;;-8.89;59.99;100021.38;4755010;30;19926;-83
2023/02/18 01:42:38;;;;;;;;;;;;;;;-8.90;61.01;100022.16;4765365;30;19925;-81
2023/02/18 02:00:59;;;;;;;;;;;;;;;-8.98;61.51;99995.50;4749316;30;20463;-85
2023/02/18 04:31:14;;;;;;;;;;;;;;;-7.21;60.61;99795.03;4757641;30;19930;-83
2023/02/18 05:00:54;;;;;;;;;;;;;;;;;;;;;
2023/02/18 05:05:01;;;;;;;;;;;;;;;;;;;;;
2023/02/18 05:14:23;;;;;;;;;;;;;;;-7.30;61.79;99743.09;2813118;27;19932;-86
2023/02/18 05:18:01;;;;;;;;;;;;;;;-7.24;61.45;99746.78;4770539;30;19964;-83
2023/02/18 05:40:42;;;;;;;;;;;;;;;-6.83;62.09;99708.78;3114183;27;19932;-88
2023/02/18 05:43:14;;;;;;;;;;;;;;;-6.84;61.10;99709.56;4785157;29;20016;-89
2023/02/18 05:46:13;;;;;;;;;;;;;;;;;;;;;
2023/02/18 05:49:32;;;;;;;;;;;;;;;-6.77;61.51;99699.81;4797270;29;19936;-88
2023/02/18 05:52:28;;;;;;;;;;;;;;;-6.90;61.74;99701.63;4764090;30;19925;-88
2023/02/18 05:58:24;;;;;;;;;;;;;;;-6.75;61.88;99688.13;4762869;30;19957;-86
2023/02/18 06:01:08;;;;;;;;;;;;;;;-6.68;61.41;99692.75;4803048;29;19941;-84
2023/02/18 06:04:05;;;;;;;;;;;;;;;;;;;;;
2023/02/18 06:07:22;;;;;;;;;;;;;;;-6.54;62.16;99678.38;4847470;29;19924;-85
2023/02/18 06:13:00;;;;;;;;;;;;;;;-6.47;61.80;99662.72;4784918;30;19926;-86
2023/02/18 06:16:06;;;;;;;;;;;;;;;-6.46;61.89;99659.41;4751836;30;19914;-85
2023/02/18 06:18:57;;;;;;;;;;;;;;;-6.31;62.29;99650.97;4760638;30;19918;-86
2023/02/18 06:24:28;;;;;;;;;;;;;;;-6.23;61.81;99640.47;5111524;24;19992;-86
2023/02/18 06:27:03;;;;;;;;;;;;;;;-6.30;61.47;99635.81;4818559;29;19925;-86
2023/02/18 06:29:38;;;;;;;;;;;;;;;-6.11;62.28;99627.59;4797748;29;19939;-84
2023/02/18 06:32:12;;;;;;;;;;;;;;;-6.08;61.47;99637.91;4831482;29;19980;-87
2023/02/18 06:34:47;;;;;;;;;;;;;;;-5.97;62.31;99628.31;4830842;29;19925;-84
2023/02/18 06:37:18;;;;;;;;;;;;;;;-5.78;62.29;99631.84;4826505;29;19946;-84
2023/02/18 06:40:34;;;;;;;;;;;;;;;-5.76;60.82;99626.06;4828006;29;19924;-86
2023/02/18 06:43:32;;;;;;;;;;;;;;;-5.62;61.73;99631.88;4753203;30;19988;-87
2023/02/18 06:46:04;;;;;;;;;;;;;;;-5.82;61.44;99617.25;4791375;30;19972;-85
2023/02/18 06:48:34;;;;;;;;;;;;;;;-5.72;61.56;99613.56;4813728;29;19924;-86
2023/02/18 07:01:19;;;;;;;;;;;;;;;-5.64;61.67;99584.41;898910;27;20215;-84
2023/02/18 07:03:49;;;;;;;;;;;;;;;-5.43;61.57;99596.47;4828417;29;19933;-84
2023/02/18 07:06:25;;;;;;;;;;;;;;;-5.43;61.53;99583.78;4850937;29;20393;-88
2023/02/18 07:09:04;;;;;;;;;;;;;;;-5.31;60.99;99592.91;4808159;29;19935;-84
2023/02/18 07:12:02;;;;;;;;;;;;;;;-5.38;61.09;99579.81;4812670;29;19944;-89
2023/02/18 07:15:03;;;;;;;;;;;;;;;-5.52;60.72;99579.13;4813534;29;19925;-88
2023/02/18 07:17:31;;;;;;;;;;;;;;;-5.52;60.55;99581.66;4814349;29;19924;-86
2023/02/18 07:19:57;;;;;;;;;;;;;;;-5.56;61.17;99567.06;4803459;29;20022;-85
2023/02/18 07:25:43;;;;;;;;;;;;;;;-5.21;61.04;99543.50;4806912;29;19995;-88
2023/02/18 07:28:21;;;;;;;;;;;;;;;-5.11;61.15;99536.31;4792863;29;19931;-88
2023/02/18 07:47:22;;;;;;;;;;;;;;;-4.83;59.88;99520.78;4727241;30;19930;-88
2023/02/18 08:31:55;;;;;;;;;;;;;;;-4.00;60.02;99439.03;4821311;27;20007;-86
2023/02/18 08:34:34;;;;;;;;;;;;;;;-3.86;60.01;99432.88;4836893;29;19960;-86
2023/02/18 08:37:01;;;;;;;;;;;;;;;-3.94;59.36;99422.38;4806418;29;19929;-86
2023/02/18 08:39:27;;;;;;;;;;;;;;;-3.91;59.10;99428.38;4836676;29;19924;-86
2023/02/18 08:41:56;;;;;;;;;;;;;;;-3.98;59.46;99430.66;4798811;29;19982;-84
2023/02/18 08:44:22;;;;;;;;;;;;;;;-4.02;59.13;99433.00;4832538;29;19935;-83
2023/02/18 08:50:47;;;;;;;;;;;;;;;-3.77;59.70;99404.41;4788585;30;19932;-83
2023/02/18 08:53:56;;;;;;;;;;;;;;;-3.58;59.22;99405.19;4776136;30;19932;-86
2023/02/18 08:56:41;;;;;;;;;;;;;;;-3.49;58.64;99390.31;4779331;30;20457;-86
2023/02/18 08:59:27;;;;;;;;;;;;;;;-3.44;58.76;99377.75;4780549;30;20317;-84
2023/02/18 09:01:57;;;;;;;;;;;;;;;-3.19;59.72;99387.25;4748176;30;19922;-84
2023/02/18 09:08:09;;;;;;;;;;;;;;;-2.75;58.20;99370.28;4781161;30;19952;-84
2023/02/18 09:10:40;;;;;;;;;;;;;;;-2.60;57.62;99372.53;4735260;30;19930;-83
2023/02/18 09:13:43;;;;;;;;;;;;;;;-2.45;58.40;99361.19;4718694;30;19956;-84
2023/02/18 09:16:22;;;;;;;;;;;;;;;-2.44;58.08;99356.13;4744293;30;19931;-83
2023/02/18 09:18:52;;;;;;;;;;;;;;;-2.35;57.62;99358.13;4715252;30;20053;-84
2023/02/18 09:21:19;;;;;;;;;;;;;;;-2.50;56.00;99348.25;4744599;30;19926;-83
2023/02/18 09:31:07;;;;;;;;;;;;;;;-2.16;57.19;99310.34;4730349;30;19950;-85
2023/02/18 09:33:51;;;;;;;;;;;;;;;-1.54;56.85;99320.91;4732307;30;19926;-82
2023/02/18 09:36:20;;;;;;;;;;;;;;;-1.21;56.53;99317.69;4763795;30;19926;-85
2023/02/18 09:38:46;;;;;;;;;;;;;;;-0.74;56.19;99300.31;4781743;30;20320;-84
2023/02/18 09:45:23;;;;;;;;;;;;;;;;;;;;;
2023/02/18 09:59:41;;;;;;;;;;;;;;;;;;;;;
2023/02/18 10:03:43;;;;;;;;;;;;;;;0.30;53.08;99247.59;4674264;30;19948;-84
2023/02/18 10:10:23;;;;;;;;;;;;;;;0.61;49.84;99215.03;4672409;30;20038;-86
2023/02/18 10:12:53;;;;;;;;;;;;;;;0.39;50.23;99229.91;4736254;30;19926;-88
2023/02/18 10:15:40;;;;;;;;;;;;;;;0.15;50.64;99232.72;4751600;30;19926;-84
2023/02/18 10:18:44;;;;;;;;;;;;;;;-0.03;50.45;99235.72;4780193;30;19925;-84
2023/02/18 10:21:26;;;;;;;;;;;;;;;-0.42;51.16;99218.53;4763592;29;19996;-89
2023/02/18 10:23:58;;;;;;;;;;;;;;;0.08;51.14;99220.66;4765495;30;20368;-83
2023/02/18 10:29:24;;;;;;;;;;;;;;;-0.08;49.77;99209.16;4768616;29;20306;-86
2023/02/18 10:32:17;;;;;;;;;;;;;;;-0.46;49.57;99203.13;4784575;30;20008;-86
2023/02/18 10:34:48;;;;;;;;;;;;;;;-0.52;49.33;99200.41;4778053;30;19925;-86
2023/02/18 10:37:32;;;;;;;;;;;;;;;-0.43;49.95;99197.22;4792218;29;20431;-85
2023/02/18 10:40:10;;;;;;;;;;;;;;;-0.51;49.59;99175.69;4801099;29;19933;-84
2023/02/18 10:42:42;;;;;;;;;;;;;;;-0.33;49.95;99178.72;4791933;30;19926;-85
2023/02/18 10:45:17;;;;;;;;;;;;;;;0.07;50.49;99165.19;4770375;30;19957;-84
2023/02/18 10:47:53;;;;;;;;;;;;;;;0.57;50.19;99177.38;4783578;30;19940;-86
2023/02/18 10:50:19;;;;;;;;;;;;;;;0.56;49.19;99176.50;4749215;29;19930;-83
2023/02/18 10:52:48;;;;;;;;;;;;;;;0.31;49.27;99172.53;4793431;29;19925;-87
2023/02/18 10:55:17;;;;;;;;;;;;;;;0.03;49.09;99158.25;4778436;29;19931;-86
2023/02/18 10:57:46;;;;;;;;;;;;;;;-0.19;49.13;99158.59;4778702;30;19934;-84
2023/02/18 11:00:23;;;;;;;;;;;;;;;-0.43;48.51;99158.88;4780187;30;19969;-86
2023/02/18 11:03:09;;;;;;;;;;;;;;;-0.42;49.84;99152.06;4801699;29;19913;-85
2023/02/18 11:05:39;;;;;;;;;;;;;;;-0.54;48.86;99144.94;4755084;30;19930;-84
2023/02/18 11:08:13;;;;;;;;;;;;;;;-0.49;49.24;99148.47;4769799;29;19918;-87
2023/02/18 11:11:32;;;;;;;;;;;;;;;-0.61;48.70;99138.81;4801712;30;19925;-89
2023/02/18 11:14:29;;;;;;;;;;;;;;;-0.76;48.71;99160.59;4781374;30;19944;-83
2023/02/18 11:17:40;;;;;;;;;;;;;;;-0.97;49.03;99143.00;4741516;30;19929;-86
2023/02/18 11:20:51;;;;;;;;;;;;;;;-1.07;49.49;99125.69;4783993;30;19925;-83
2023/02/18 11:27:09;;;;;;;;;;;;;;;-0.37;49.68;99128.34;4772296;30;20002;-87
2023/02/18 11:29:36;;;;;;;;;;;;;;;-0.47;48.02;99111.03;4790576;30;19936;-84
2023/02/18 11:32:03;;;;;;;;;;;;;;;-0.32;49.00;99113.97;4771749;30;19984;-84
2023/02/18 11:34:41;;;;;;;;;;;;;;;-0.26;48.91;99113.28;4794563;30;19936;-86
2023/02/18 11:37:12;;;;;;;;;;;;;;;-0.30;48.76;99106.34;4789168;30;20441;-82
2023/02/18 11:40:03;;;;;;;;;;;;;;;-0.36;48.67;99101.97;4807625;30;19925;-83
2023/02/18 11:42:29;;;;;;;;;;;;;;;-0.26;49.19;99091.94;4793006;30;19930;-87
2023/02/18 11:44:59;;;;;;;;;;;;;;;-0.19;48.39;99087.00;4777219;29;19910;-85
2023/02/18 11:47:39;;;;;;;;;;;;;;;-0.72;47.11;99100.19;4792856;30;19941;-81
2023/02/18 11:50:08;;;;;;;;;;;;;;;-1.03;48.11;99099.44;4778255;30;19905;-85
2023/02/18 11:52:43;;;;;;;;;;;;;;;-1.16;49.73;99097.34;4790693;30;19978;-85
2023/02/18 11:55:22;;;;;;;;;;;;;;;-1.37;49.77;99088.28;4778165;30;19926;-83
2023/02/18 11:57:58;;;;;;;;;;;;;;;-1.40;49.46;99093.28;4792309;30;19940;-85
2023/02/18 12:00:35;;;;;;;;;;;;;;;-1.79;49.10;99107.53;4768883;30;19926;-86
2023/02/18 12:03:15;;;;;;;;;;;;;;;-2.15;49.31;99096.25;4780822;30;19925;-85
2023/02/18 12:05:44;;;;;;;;;;;;;;;-2.52;49.99;99084.03;4781438;30;19944;-85
2023/02/18 12:08:19;;;;;;;;;;;;;;;-2.59;50.24;99080.41;4794214;29;19913;-85
2023/02/18 12:11:04;;;;;;;;;;;;;;;-2.60;50.70;99076.13;4811182;29;19914;-85
2023/02/18 12:13:49;;;;;;;;;;;;;;;-2.69;50.56;99065.63;4772338;30;19969;-84
2023/02/18 12:16:15;;;;;;;;;;;;;;;-2.84;50.65;99059.22;4770423;29;19909;-84
2023/02/18 12:19:05;;;;;;;;;;;;;;;-2.89;51.06;99070.94;4766556;29;20313;-82
2023/02/18 12:21:43;;;;;;;;;;;;;;;-2.96;50.78;99064.78;4774028;30;19977;-85
2023/02/18 12:24:58;;;;;;;;;;;;;;;;;;;;;
2023/02/18 12:28:12;;;;;;;;;;;;;;;-2.45;51.33;99061.31;4796566;29;19985;-85
2023/02/18 12:31:10;;;;;;;;;;;;;;;-2.32;50.90;99041.34;4751900;30;19925;-82
2023/02/18 12:34:03;;;;;;;;;;;;;;;-2.01;51.21;99042.25;4716338;30;19932;-84
2023/02/18 12:40:53;;;;;;;;;;;;;;;;;;;;;
2023/02/18 12:44:03;;;;;;;;;;;;;;;;;;;;;
2023/02/18 12:47:26;;;;;;;;;;;;;;;-2.30;51.38;99039.69;4772661;30;19925;-89
2023/02/18 12:50:14;;;;;;;;;;;;;;;-2.40;51.03;99042.78;4772100;30;19929;-85
2023/02/18 12:53:07;;;;;;;;;;;;;;;-2.59;50.87;99037.97;4779192;30;19925;-82
2023/02/18 12:56:29;;;;;;;;;;;;;;;-2.40;52.15;99027.47;4793842;29;20299;-83
2023/02/18 12:59:10;;;;;;;;;;;;;;;-2.50;51.95;99022.09;4727014;30;20412;-82
2023/02/18 13:01:45;;;;;;;;;;;;;;;-2.58;52.53;99024.41;4723877;30;19927;-85
2023/02/18 13:04:17;;;;;;;;;;;;;;;-2.55;52.79;99023.66;4778593;29;19917;-83
2023/02/18 13:07:01;;;;;;;;;;;;;;;-2.45;52.77;99012.91;4773819;30;19959;-83
2023/02/18 13:09:41;;;;;;;;;;;;;;;-2.62;52.50;99022.56;4765451;30;19925;-84
2023/02/18 13:12:28;;;;;;;;;;;;;;;-2.74;52.49;99020.50;4769006;29;19929;-86
2023/02/18 13:15:22;;;;;;;;;;;;;;;-2.68;52.77;99008.78;4779771;30;19993;-85
2023/02/18 13:18:41;;;;;;;;;;;;;;;-2.63;53.19;98995.34;4772884;30;19926;-87
2023/02/18 13:21:14;;;;;;;;;;;;;;;-2.76;52.44;99008.53;4755120;30;19926;-84
2023/02/18 13:24:00;;;;;;;;;;;;;;;-3.06;52.28;98996.53;4777814;30;19948;-87
2023/02/18 13:29:52;;;;;;;;;;;;;;;-3.34;53.09;99003.28;4986145;24;19916;-89
2023/02/18 13:33:15;;;;;;;;;;;;;;;-3.35;53.52;99007.47;4782608;30;19933;-86
2023/02/18 13:36:13;;;;;;;;;;;;;;;-3.54;53.32;98987.31;4790996;30;19926;-87
2023/02/18 13:43:46;;;;;;;;;;;;;;;-3.68;53.71;98992.78;4791523;30;20088;-88
2023/02/18 13:47:05;;;;;;;;;;;;;;;-3.87;54.00;98970.91;4751785;30;19942;-84
2023/02/18 13:49:56;;;;;;;;;;;;;;;-4.03;53.98;98972.03;4751748;30;20014;-85
2023/02/18 13:53:13;;;;;;;;;;;;;;;;;;;;;
2023/02/18 13:56:14;;;;;;;;;;;;;;;;;;;;;
2023/02/18 13:58:58;;;;;;;;;;;;;;;-4.21;54.82;98964.63;4774856;30;19995;-87
2023/02/18 14:02:10;;;;;;;;;;;;;;;-4.33;55.25;98957.41;4775056;30;19956;-85
2023/02/18 14:04:46;;;;;;;;;;;;;;;-4.42;54.65;98963.03;4753470;30;19938;-84
2023/02/18 14:07:31;;;;;;;;;;;;;;;-4.41;55.57;98956.25;4756023;30;20403;-86
2023/02/18 14:17:39;;;;;;;;;;;;;;;-4.60;55.62;98950.47;4802398;29;19932;-85
2023/02/18 14:24:36;;;;;;;;;;;;;;;-4.79;56.07;98953.13;4833772;29;20440;-83
2023/02/18 14:27:16;;;;;;;;;;;;;;;-4.96;55.98;98945.69;4792928;29;19925;-84
2023/02/18 14:33:36;;;;;;;;;;;;;;;-5.10;56.73;98946.81;4856572;29;19932;-82
2023/02/18 14:36:42;;;;;;;;;;;;;;;-5.11;57.57;98934.94;4828763;29;19925;-86
2023/02/18 14:39:54;;;;;;;;;;;;;;;-5.09;57.41;98933.34;4820369;29;19916;-85
2023/02/18 14:42:40;;;;;;;;;;;;;;;-5.00;57.60;98933.72;4839944;29;19992;-86
2023/02/18 14:45:17;;;;;;;;;;;;;;;-4.99;57.69;98938.81;4830940;29;19928;-86
2023/02/18 14:47:43;;;;;;;;;;;;;;;-4.90;57.54;98919.69;4817329;29;19924;-86
2023/02/18 14:50:18;;;;;;;;;;;;;;;-4.80;57.36;98918.38;4825727;29;19979;-84
2023/02/18 14:52:51;;;;;;;;;;;;;;;-4.84;57.04;98915.72;4843338;29;19947;-86
2023/02/18 14:55:21;;;;;;;;;;;;;;;-4.78;57.88;98910.00;4843176;29;19904;-84
2023/02/18 14:58:00;;;;;;;;;;;;;;;-4.74;57.09;98903.38;4826241;29;19924;-86
2023/02/18 15:00:31;;;;;;;;;;;;;;;-4.69;57.40;98907.84;4846741;29;20026;-84
2023/02/18 15:03:01;;;;;;;;;;;;;;;-4.74;57.29;98898.28;4826844;29;19928;-83
2023/02/18 15:05:45;;;;;;;;;;;;;;;-4.74;58.20;98900.81;4826270;29;19935;-84
2023/02/18 15:08:38;;;;;;;;;;;;;;;-4.90;57.18;98924.78;4659104;27;19933;-84
2023/02/18 15:11:06;;;;;;;;;;;;;;;-5.02;57.56;98898.09;4837095;29;19963;-84
2023/02/18 15:13:35;;;;;;;;;;;;;;;-4.99;57.71;98895.69;4811399;29;19998;-86
2023/02/18 15:16:05;;;;;;;;;;;;;;;-5.00;58.25;98899.03;4822959;29;20637;-83
2023/02/18 15:18:36;;;;;;;;;;;;;;;-4.99;57.76;98882.16;4821390;29;20028;-84
2023/02/18 15:21:07;;;;;;;;;;;;;;;-5.00;58.30;98877.88;4820568;29;19938;-84
2023/02/18 15:23:38;;;;;;;;;;;;;;;-4.94;58.50;98882.31;4834119;29;19937;-83
2023/02/18 15:26:09;;;;;;;;;;;;;;;-5.03;58.29;98881.13;4816219;29;19929;-85
2023/02/18 15:31:56;;;;;;;;;;;;;;;-5.03;58.64;98875.22;4509206;27;19933;-83
2023/02/18 15:34:33;;;;;;;;;;;;;;;-5.05;58.33;98864.13;4820884;29;19924;-85
2023/02/18 15:37:01;;;;;;;;;;;;;;;-5.12;57.91;98859.63;4825602;29;19952;-84
2023/02/18 15:39:31;;;;;;;;;;;;;;;-5.12;58.71;98852.00;4825531;29;19925;-83
2023/02/18 15:42:25;;;;;;;;;;;;;;;-5.22;58.67;98845.72;4826345;29;19976;-84
2023/02/18 15:45:43;;;;;;;;;;;;;;;-5.20;59.16;98846.66;4819190;29;19928;-84
2023/02/18 15:48:35;;;;;;;;;;;;;;;-5.15;58.99;98853.63;4813014;29;19917;-84
2023/02/18 15:54:41;;;;;;;;;;;;;;;-4.95;59.43;98834.91;4793327;29;19915;-83
2023/02/18 16:04:31;;;;;;;;;;;;;;;-4.92;58.74;98814.72;4745505;30;19957;-84
2023/02/18 16:07:37;;;;;;;;;;;;;;;-5.00;58.09;98815.28;4864796;24;19945;-82
2023/02/18 16:10:17;;;;;;;;;;;;;;;-4.95;59.18;98823.06;4826906;29;19951;-83
2023/02/18 16:13:14;;;;;;;;;;;;;;;-4.87;59.40;98813.22;4815478;29;19909;-84
2023/02/18 16:16:29;;;;;;;;;;;;;;;-4.84;59.31;98811.66;4854977;29;19935;-83
2023/02/18 16:19:27;;;;;;;;;;;;;;;-4.90;59.04;98806.34;4830697;29;19935;-82
2023/02/18 16:26:40;;;;;;;;;;;;;;;-4.77;58.94;98806.81;4683731;30;19991;-85
2023/02/18 16:29:48;;;;;;;;;;;;;;;-4.79;59.50;98800.81;4694702;30;19922;-86
2023/02/18 16:32:34;;;;;;;;;;;;;;;-4.86;59.25;98803.09;4715770;30;19914;-88
2023/02/18 16:35:03;;;;;;;;;;;;;;;-4.78;59.59;98797.47;4836177;29;19949;-85
2023/02/18 16:37:48;;;;;;;;;;;;;;;-4.81;59.30;98810.03;4826888;29;19928;-89
2023/02/18 16:40:40;;;;;;;;;;;;;;;-4.81;59.02;98804.97;4857229;29;19985;-85
2023/02/18 16:43:20;;;;;;;;;;;;;;;-4.90;59.36;98788.56;4816413;29;19940;-86
2023/02/18 16:46:47;;;;;;;;;;;;;;;-4.79;59.67;98785.56;4844206;29;19971;-85
2023/02/18 16:49:58;;;;;;;;;;;;;;;-4.84;59.63;98793.00;4999363;24;19933;-83
2023/02/18 16:52:41;;;;;;;;;;;;;;;;;;;;;
2023/02/18 16:55:34;;;;;;;;;;;;;;;-4.77;59.88;98769.56;5214073;24;19933;-86
2023/02/18 16:58:26;;;;;;;;;;;;;;;-4.68;60.09;98779.19;4828436;29;19933;-86
2023/02/18 17:01:13;;;;;;;;;;;;;;;-4.76;59.68;98773.00;4825235;29;19925;-86
2023/02/18 17:14:03;;;;;;;;;;;;;;;-4.66;59.51;98757.25;4905999;24;19916;-85
2023/02/18 17:16:49;;;;;;;;;;;;;;;;;;;;;
2023/02/18 17:25:47;;;;;;;;;;;;;;;-4.67;59.65;98749.59;5109303;24;19966;-85
2023/02/18 17:28:37;;;;;;;;;;;;;;;-4.70;59.78;98746.16;4841902;29;19939;-86
2023/02/18 17:31:09;;;;;;;;;;;;;;;-4.64;59.90;98740.41;4824309;29;19936;-85
2023/02/18 17:33:35;;;;;;;;;;;;;;;-4.60;60.39;98741.38;4853042;29;20271;-85
2023/02/18 17:36:11;;;;;;;;;;;;;;;-4.68;59.82;98738.56;4827175;29;19935;-84
2023/02/18 17:38:37;;;;;;;;;;;;;;;-4.65;60.16;98736.13;4825013;29;19924;-82
2023/02/18 17:41:11;;;;;;;;;;;;;;;-4.59;59.91;98741.44;4841641;29;19943;-81
2023/02/18 17:43:54;;;;;;;;;;;;;;;-4.51;60.00;98733.19;4836700;29;19963;-83
2023/02/18 17:49:43;;;;;;;;;;;;;;;-4.51;59.36;98728.13;4845029;29;19988;-84
2023/02/18 17:52:38;;;;;;;;;;;;;;;-4.59;59.75;98723.66;4810338;29;19939;-83
2023/02/18 17:55:21;;;;;;;;;;;;;;;-4.61;58.87;98722.75;4863103;29;19937;-85
2023/02/18 17:57:49;;;;;;;;;;;;;;;-4.65;59.40;98720.91;4820893;29;20032;-85
2023/02/18 18:00:22;;;;;;;;;;;;;;;-4.64;60.02;98726.88;4829842;29;19905;-84
2023/02/18 18:07:19;;;;;;;;;;;;;;;-4.54;60.19;98729.78;4828402;29;19970;-86
2023/02/18 18:10:21;;;;;;;;;;;;;;;-4.68;59.51;98720.78;4803349;29;19925;-84
2023/02/18 18:20:41;;;;;;;;;;;;;;;-4.47;59.75;98712.19;5301754;24;19948;-84
2023/02/18 20:51:17;;;;;;;;;;;;;;;-4.76;60.13;98598.69;4589021;31;19970;-85
2023/02/18 20:54:38;;;;;;;;;;;;;;;;;;;;;
2023/02/18 21:09:32;;;;;;;;;;;;;;;;;;;;;
2023/02/18 21:12:22;;;;;;;;;;;;;;;-5.27;60.18;98596.97;4562924;31;19939;-84
2023/02/18 21:15:35;;;;;;;;;;;;;;;;;;;;;
2023/02/18 21:18:37;;;;;;;;;;;;;;;-5.20;59.90;98590.41;4707398;30;20076;-85
2023/02/18 21:21:38;;;;;;;;;;;;;;;-5.26;59.89;98580.94;4744100;30;19930;-84
2023/02/18 21:24:22;;;;;;;;;;;;;;;-5.42;59.88;98583.75;4730619;30;19927;-84
2023/02/18 21:26:52;;;;;;;;;;;;;;;-5.38;59.78;98581.38;4745407;30;19910;-82
2023/02/18 21:29:40;;;;;;;;;;;;;;;-5.53;59.00;98576.63;4744490;30;19917;-86
2023/02/18 21:32:48;;;;;;;;;;;;;;;-5.72;59.85;98572.53;4759039;30;19938;-83
2023/02/18 21:40:00;;;;;;;;;;;;;;;-5.71;60.25;98565.81;4730685;30;20045;-84
2023/02/18 21:50:35;;;;;;;;;;;;;;;-5.92;60.07;98562.53;4695064;30;20002;-82
2023/02/18 21:58:18;;;;;;;;;;;;;;;;;;;;;
2023/02/18 22:01:15;;;;;;;;;;;;;;;-6.04;60.91;98557.06;4731123;30;19927;-85
2023/02/18 22:04:24;;;;;;;;;;;;;;;-6.12;60.73;98553.38;4729311;30;19949;-82
2023/02/18 22:06:57;;;;;;;;;;;;;;;-6.04;60.82;98559.59;4741922;30;19926;-82
2023/02/18 22:25:36;;;;;;;;;;;;;;;-6.04;61.15;98541.84;4680591;30;19947;-83
2023/02/18 22:28:15;;;;;;;;;;;;;;;-6.06;60.22;98534.19;4676830;30;20045;-82
2023/02/18 22:31:25;;;;;;;;;;;;;;;-6.03;61.02;98540.16;4695734;30;19934;-84
2023/02/18 22:34:47;;;;;;;;;;;;;;;;;;;;;
2023/02/18 22:37:56;;;;;;;;;;;;;;;-5.81;61.09;98534.22;4674507;30;20116;-82
2023/02/18 22:45:03;;;;;;;;;;;;;;;;;;;;;
2023/02/18 22:48:10;;;;;;;;;;;;;;;-5.67;60.62;98534.69;4670727;30;19958;-83
2023/02/18 22:56:17;;;;;;;;;;;;;;;;;;;;;
2023/02/18 22:59:57;;;;;;;;;;;;;;;-6.15;61.20;98533.84;4699486;30;19927;-83
2023/02/18 23:03:36;;;;;;;;;;;;;;;-6.09;60.64;98534.09;4684832;30;19934;-84
2023/02/18 23:07:09;;;;;;;;;;;;;;;;;;;;;
2023/02/18 23:18:00;;;;;;;;;;;;;;;-6.00;61.28;98538.63;4668480;30;19938;-83
2023/02/18 23:25:03;;;;;;;;;;;;;;;-6.01;60.76;98528.44;4712410;30;20332;-82
2023/02/18 23:33:02;;;;;;;;;;;;;;;-5.96;61.55;98521.84;4695485;30;19927;-82
2023/02/18 23:36:44;;;;;;;;;;;;;;;;;;;;;
2023/02/18 23:43:04;;;;;;;;;;;;;;;-5.87;61.15;98512.06;4726865;30;19958;-88
2023/02/18 23:45:57;;;;;;;;;;;;;;;-5.89;61.24;98518.72;4715059;30;19941;-85
2023/02/18 23:48:35;;;;;;;;;;;;;;;-5.86;61.61;98512.91;4729214;30;20025;-83
2023/02/18 23:51:08;;;;;;;;;;;;;;;-5.89;61.24;98518.72;4729055;30;19937;-82
2023/02/18 23:53:43;;;;;;;;;;;;;;;-5.84;61.33;98506.22;4729472;30;19938;-82
2023/02/18 23:56:25;;;;;;;;;;;;;;;-5.74;61.28;98510.81;4748524;30;19927;-82
2023/02/18 23:58:59;;;;;;;;;;;;;;;-5.73;61.45;98507.44;4719954;30;19927;-84
